Terminal Aerodrome Forecast
Issued by NWS Brownsville, TX

Home | Current Version | Previous Version | Text Only | Print | Product List | Glossary On
Versions: 1 2 3 4 5 6 7 8 9 10 11 12 13 14 15 16 17 18 19 20 21 22 23
000
FTUS44 KBRO 012335
TAFBRO
TAF
KBRO 012335Z 0200/0224 12008KT P6SM FEW040 OVC150
     FM020600 VRB03KT P6SM FEW025 SCT150
     FM021500 14012G17KT P6SM SCT035 BKN150=

USA.gov is the U.S. government's official web portal to all federal, state and local government web resources and services.